createdAt,value
2019-05-13T00:00:39.644Z,70.21
2019-05-13T00:03:08.449Z,70.37
2019-05-13T00:05:37.321Z,71.30
2019-05-13T00:08:06.094Z,71.68
2019-05-13T00:10:35.181Z,70.85
2019-05-13T00:13:04.485Z,71.98
2019-05-13T00:15:33.996Z,71.94
2019-05-13T00:18:03.590Z,71.81
2019-05-13T00:20:30.192Z,71.66
2019-05-13T00:22:59.034Z,71.61
2019-05-13T00:25:27.852Z,72.10
2019-05-13T00:27:56.688Z,71.85
2019-05-13T00:30:25.575Z,72.12
2019-05-13T00:32:54.656Z,72.31
2019-05-13T00:35:23.417Z,71.98
2019-05-13T00:37:54.131Z,72.70
2019-05-13T00:40:20.744Z,72.76
2019-05-13T00:42:49.743Z,72.35
2019-05-13T00:45:19.336Z,72.79
2019-05-13T00:47:48.224Z,72.60
2019-05-13T00:50:17.111Z,72.88
2019-05-13T00:52:45.927Z,72.77
2019-05-13T00:55:15.085Z,73.63
2019-05-13T00:57:44.114Z,73.21
2019-05-13T01:00:14.081Z,73.19
2019-05-13T01:02:41.483Z,74.05
2019-05-13T01:05:10.292Z,73.71
2019-05-13T01:07:39.163Z,73.08
2019-05-13T01:10:08.024Z,73.51
2019-05-13T01:12:36.840Z,73.41
2019-05-13T01:15:05.706Z,73.67
2019-05-13T01:17:34.517Z,74.39
2019-05-13T01:20:04.119Z,74.41
2019-05-13T01:22:33.964Z,74.39
2019-05-13T01:25:03.932Z,73.80
2019-05-13T01:27:33.422Z,73.57
2019-05-13T01:30:00.781Z,73.84
2019-05-13T01:32:29.585Z,75.34
2019-05-13T01:34:59.031Z,74.68
2019-05-13T01:37:39.092Z,74.36
2019-05-13T01:39:56.619Z,75.12
2019-05-13T01:42:25.465Z,74.71
2019-05-13T01:44:55.484Z,74.24
2019-05-13T01:47:24.312Z,73.34
2019-05-13T01:49:54.280Z,74.49
2019-05-13T01:52:23.764Z,74.52
2019-05-13T01:54:50.722Z,74.07
2019-05-13T01:57:19.524Z,74.22
2019-05-13T01:59:48.885Z,74.72
2019-05-13T02:02:17.789Z,75.32
2019-05-13T02:04:47.472Z,75.32
2019-05-13T02:07:16.305Z,75.14
2019-05-13T02:09:45.111Z,75.15
2019-05-13T02:12:17.255Z,74.69
2019-05-13T02:14:46.791Z,74.83
2019-05-13T02:17:16.343Z,75.55
2019-05-13T02:19:45.231Z,75.84
2019-05-13T02:22:14.732Z,75.72
2019-05-13T02:24:44.650Z,75.05
2019-05-13T02:27:14.059Z,75.16
2019-05-13T02:29:40.611Z,75.33
2019-05-13T02:32:13.279Z,75.21
2019-05-13T02:34:38.931Z,76.29
2019-05-13T02:37:07.717Z,76.27
2019-05-13T02:39:36.510Z,76.19
2019-05-13T02:42:05.362Z,75.90
2019-05-13T02:44:34.183Z,76.02
2019-05-13T02:47:03.702Z,76.71
2019-05-13T02:49:32.659Z,76.08
2019-05-13T02:52:02.750Z,76.68
2019-05-13T02:54:29.462Z,76.45
2019-05-13T02:56:58.324Z,77.29
2019-05-13T02:59:27.117Z,77.45
2019-05-13T03:01:55.912Z,77.38
2019-05-13T03:04:24.786Z,77.46
2019-05-13T03:06:53.590Z,77.01
2019-05-13T03:09:23.138Z,79.06
2019-05-13T03:11:53.558Z,78.62
2019-05-13T03:14:23.665Z,77.66
2019-05-13T03:16:53.946Z,79.02
2019-05-13T03:19:22.903Z,78.36
2019-05-13T03:21:52.985Z,78.78
2019-05-13T03:24:22.881Z,78.37
2019-05-13T03:26:53.268Z,77.74
2019-05-13T03:29:22.198Z,77.78
2019-05-13T03:31:48.844Z,78.16
2019-05-13T03:34:17.698Z,78.66
2019-05-13T03:36:46.958Z,77.91
2019-05-13T03:39:16.546Z,78.38
2019-05-13T03:41:44.187Z,78.48
2019-05-13T03:44:13.745Z,78.05
2019-05-13T03:46:42.506Z,78.22
2019-05-13T03:49:13.940Z,77.97
2019-05-13T03:51:42.849Z,78.36
2019-05-13T03:54:12.637Z,78.68
2019-05-13T03:56:38.320Z,78.18
2019-05-13T03:59:07.115Z,78.97
2019-05-13T04:01:35.986Z,78.46
2019-05-13T04:04:04.795Z,78.22
2019-05-13T04:06:33.656Z,77.84
2019-05-13T04:09:20.967Z,77.72
2019-05-13T04:11:33.622Z,78.60
2019-05-13T04:14:03.193Z,78.15
2019-05-13T04:16:32.850Z,77.58
2019-05-13T04:19:02.618Z,77.64
2019-05-13T04:21:33.573Z,77.52
2019-05-13T04:23:59.321Z,77.10
2019-05-13T04:26:32.097Z,76.65
2019-05-13T04:28:58.931Z,76.33
2019-05-13T04:31:27.745Z,76.56
2019-05-13T04:33:56.559Z,76.06
2019-05-13T04:36:25.359Z,75.80
2019-05-13T04:38:54.686Z,76.44
2019-05-13T04:41:33.185Z,76.36
2019-05-13T04:44:02.436Z,75.15
2019-05-13T04:46:32.508Z,75.34
2019-05-13T04:49:02.172Z,75.09
2019-05-13T04:51:28.376Z,74.92
2019-05-13T04:53:57.570Z,74.83
2019-05-13T04:56:26.971Z,74.57
2019-05-13T04:58:55.797Z,73.96
2019-05-13T05:03:44.667Z,73.25
2019-05-13T05:06:12.946Z,72.33
2019-05-13T05:08:52.542Z,71.80
2019-05-13T05:11:34.094Z,71.09
2019-05-13T05:14:12.083Z,68.91
2019-05-13T05:16:52.366Z,67.69
2019-05-13T05:19:35.147Z,66.55
2019-05-13T05:22:13.359Z,64.16
2019-05-13T05:24:46.752Z,59.59
2019-05-13T05:27:27.052Z,55.43
2019-05-13T05:30:04.730Z,51.72
2019-05-13T05:34:51.962Z,50.58
2019-05-13T05:38:04.795Z,48.06
2019-05-13T05:40:34.818Z,44.20
2019-05-13T05:43:03.112Z,41.21
2019-05-13T05:45:34.420Z,37.69
2019-05-13T05:48:05.995Z,36.89
2019-05-13T05:50:35.690Z,38.89
2019-05-13T05:53:05.091Z,41.05
2019-05-13T05:55:35.232Z,41.00
2019-05-13T05:58:05.259Z,41.12
2019-05-13T06:00:34.423Z,39.65
2019-05-13T06:03:03.487Z,39.41
2019-05-13T06:05:33.662Z,39.34
2019-05-13T06:08:02.438Z,39.35
2019-05-13T06:10:44.238Z,39.19
2019-05-13T06:13:01.825Z,38.39
2019-05-13T06:15:31.503Z,37.18
2019-05-13T06:17:58.883Z,34.67
2019-05-13T06:20:27.744Z,33.80
2019-05-13T06:22:56.523Z,34.67
2019-05-13T06:25:25.344Z,33.39
2019-05-13T06:27:54.149Z,32.41
2019-05-13T06:30:22.965Z,32.92
2019-05-13T06:32:52.635Z,33.60
2019-05-13T06:35:21.867Z,34.19
2019-05-13T06:37:52.053Z,33.07
2019-05-13T06:40:21.201Z,32.60
2019-05-13T06:42:48.018Z,31.83
2019-05-13T06:45:18.556Z,31.07
2019-05-13T06:47:47.390Z,31.64
2019-05-13T06:50:16.179Z,33.76
2019-05-13T06:52:45.113Z,35.96
2019-05-13T06:55:13.959Z,37.53
2019-05-13T06:57:42.748Z,37.48
2019-05-13T07:00:12.280Z,36.61
2019-05-13T07:02:42.660Z,37.28
2019-05-13T07:05:12.054Z,37.70
2019-05-13T07:07:39.231Z,37.14
2019-05-13T07:10:12.508Z,38.10
2019-05-13T07:12:38.476Z,39.47
2019-05-13T07:15:07.338Z,40.30
2019-05-13T07:17:36.124Z,40.30
2019-05-13T07:20:05.620Z,40.72
2019-05-13T07:22:34.575Z,41.45
2019-05-13T07:25:03.366Z,41.38
2019-05-13T07:27:32.805Z,39.87
2019-05-13T07:30:02.497Z,41.27
2019-05-13T07:32:31.608Z,41.54
2019-05-13T07:35:03.884Z,42.08
2019-05-13T07:37:31.657Z,42.84
2019-05-13T07:39:58.187Z,43.01
2019-05-13T07:42:28.288Z,42.26
2019-05-13T07:44:57.375Z,42.83
2019-05-13T07:47:28.495Z,41.82
2019-05-13T07:49:57.297Z,42.53
2019-05-13T07:52:26.569Z,42.61
2019-05-13T07:54:55.368Z,42.59
2019-05-13T07:57:25.049Z,41.49
2019-05-13T07:59:55.031Z,40.29
2019-05-13T08:02:24.097Z,41.50
2019-05-13T08:04:54.628Z,40.75
2019-05-13T08:07:27.799Z,41.42
2019-05-13T08:10:00.132Z,42.55
2019-05-13T08:12:26.948Z,42.11
2019-05-13T08:14:55.993Z,41.84
2019-05-13T08:17:24.816Z,42.71
2019-05-13T08:19:54.288Z,41.62
2019-05-13T08:22:23.109Z,38.96
2019-05-13T08:24:54.125Z,41.25
2019-05-13T08:27:30.067Z,39.33
2019-05-13T08:29:52.007Z,39.59
2019-05-13T08:32:18.931Z,39.98
2019-05-13T08:34:52.524Z,38.67
2019-05-13T08:37:17.388Z,37.70
2019-05-13T08:39:46.191Z,38.15
2019-05-13T08:42:19.661Z,36.82
2019-05-13T08:44:44.907Z,36.77
2019-05-13T08:47:14.648Z,37.33
2019-05-13T08:49:43.455Z,36.65
2019-05-13T08:52:12.359Z,35.91
2019-05-13T08:54:42.006Z,36.77
2019-05-13T08:57:11.796Z,36.85
2019-05-13T08:59:42.141Z,35.79
2019-05-13T09:02:11.382Z,36.15
2019-05-13T09:04:38.502Z,35.73
2019-05-13T09:07:08.691Z,37.20
2019-05-13T09:09:37.453Z,38.10
2019-05-13T09:12:06.249Z,37.13
2019-05-13T09:14:35.075Z,36.09
2019-05-13T09:17:03.940Z,34.52
2019-05-13T09:19:33.653Z,34.17
2019-05-13T09:22:03.363Z,34.25
2019-05-13T09:24:37.242Z,32.63
2019-05-13T09:27:01.913Z,32.27
2019-05-13T09:29:32.276Z,33.37
2019-05-13T09:31:58.710Z,33.91
2019-05-13T09:34:28.968Z,31.73
2019-05-13T09:36:57.725Z,31.84
2019-05-13T09:39:26.540Z,32.86
2019-05-13T09:41:55.329Z,31.79
2019-05-13T09:44:26.062Z,29.39
2019-05-13T09:46:55.192Z,28.86
2019-05-13T09:49:23.989Z,28.72
2019-05-13T09:51:52.824Z,28.38
2019-05-13T09:54:22.357Z,28.51
2019-05-13T09:56:51.834Z,27.45
2019-05-13T09:59:22.163Z,26.85
2019-05-13T10:01:51.882Z,26.12
2019-05-13T10:04:19.011Z,27.17
2019-05-13T10:06:48.125Z,26.82
2019-05-13T10:09:17.964Z,24.96
2019-05-13T10:11:46.771Z,26.03
2019-05-13T10:14:15.554Z,25.06
2019-05-13T10:16:44.337Z,27.11
2019-05-13T10:19:13.813Z,27.07
2019-05-13T10:21:42.654Z,27.08
2019-05-13T10:24:12.727Z,26.22
2019-05-13T10:26:43.030Z,26.39
2019-05-13T10:29:11.867Z,26.45
2019-05-13T10:31:41.798Z,24.44
2019-05-13T10:34:08.097Z,24.79
2019-05-13T10:36:36.976Z,25.99
2019-05-13T10:39:07.552Z,25.23
2019-05-13T10:41:36.339Z,22.07
2019-05-13T10:44:05.241Z,22.39
2019-05-13T10:46:34.060Z,22.93
2019-05-13T10:49:02.881Z,22.58
2019-05-13T10:51:32.616Z,22.97
2019-05-13T10:54:01.622Z,25.24
2019-05-13T10:56:32.763Z,24.97
2019-05-13T10:59:01.626Z,26.06
2019-05-13T11:01:28.060Z,26.00
2019-05-13T11:03:57.468Z,24.87
2019-05-13T11:06:26.300Z,24.80
2019-05-13T11:08:55.072Z,25.29
2019-05-13T11:11:24.691Z,24.68
2019-05-13T11:13:59.174Z,22.71
2019-05-13T11:16:22.692Z,23.29
2019-05-13T11:18:51.959Z,23.54
2019-05-13T11:21:22.461Z,24.44
2019-05-13T11:23:52.516Z,24.02
2019-05-13T11:26:22.275Z,24.10
2019-05-13T11:28:52.104Z,24.17
2019-05-13T11:31:21.719Z,24.30
2019-05-13T11:33:48.393Z,25.43
2019-05-13T11:36:19.231Z,24.50
2019-05-13T11:38:46.041Z,24.23
2019-05-13T11:41:14.850Z,23.91
2019-05-13T11:43:43.648Z,23.29
2019-05-13T11:46:12.613Z,23.44
2019-05-13T11:48:42.617Z,23.34
2019-05-13T11:51:13.131Z,24.02
2019-05-13T11:53:41.541Z,23.93
2019-05-13T11:56:11.532Z,23.77
2019-05-13T11:58:38.354Z,24.29
2019-05-13T12:01:07.188Z,24.21
2019-05-13T12:03:35.978Z,24.07
2019-05-13T12:06:05.428Z,23.08
2019-05-13T12:08:34.462Z,23.36
2019-05-13T12:11:04.176Z,23.00
2019-05-13T12:13:32.801Z,23.16
2019-05-13T12:16:03.573Z,22.54
2019-05-13T12:18:29.585Z,23.38
2019-05-13T12:20:58.380Z,22.43
2019-05-13T12:23:27.162Z,23.00
2019-05-13T12:25:56.740Z,24.10
2019-05-13T12:28:26.312Z,23.52
2019-05-13T12:30:55.144Z,23.10
2019-05-13T12:33:23.967Z,22.15
2019-05-13T12:35:54.862Z,22.61
2019-05-13T12:38:23.789Z,21.27
2019-05-13T12:40:53.212Z,21.15
2019-05-13T12:43:24.108Z,20.44
2019-05-13T12:45:53.440Z,20.99
2019-05-13T12:48:22.650Z,22.06
2019-05-13T12:50:48.819Z,21.33
2019-05-13T12:53:18.222Z,21.26
2019-05-13T12:55:55.644Z,20.56
2019-05-13T12:58:18.530Z,21.34
2019-05-13T13:00:49.503Z,21.62
2019-05-13T13:03:18.287Z,21.56
2019-05-13T13:05:47.093Z,22.03
2019-05-13T13:08:38.230Z,21.05
2019-05-13T13:10:46.101Z,21.36
2019-05-13T13:13:14.904Z,21.36
2019-05-13T13:15:48.680Z,21.75
2019-05-13T13:18:14.282Z,21.09
2019-05-13T13:20:42.387Z,20.81
2019-05-13T13:23:12.869Z,20.95
2019-05-13T13:25:43.461Z,21.29
2019-05-13T13:28:14.216Z,21.97
2019-05-13T13:30:43.910Z,22.28
2019-05-13T13:33:13.876Z,22.52
2019-05-13T13:35:45.232Z,22.66
2019-05-13T13:38:11.569Z,23.22
2019-05-13T13:40:40.775Z,22.22
2019-05-13T13:43:12.294Z,22.66
2019-05-13T13:46:06.015Z,21.71
2019-05-13T13:48:07.320Z,22.04
2019-05-13T13:50:36.181Z,23.60
2019-05-13T13:53:06.167Z,23.09
2019-05-13T13:55:36.187Z,23.63
2019-05-13T13:58:04.986Z,23.88
2019-05-13T14:00:47.004Z,23.82
2019-05-13T14:05:36.162Z,24.14
2019-05-13T14:07:12.862Z,23.80
2019-05-13T14:08:01.632Z,24.64
2019-05-13T14:10:31.863Z,25.49
2019-05-13T14:13:02.330Z,24.86
2019-05-13T14:15:31.054Z,24.97
2019-05-13T14:17:58.119Z,25.86
2019-05-13T14:20:27.674Z,24.97
2019-05-13T14:22:58.350Z,25.70
2019-05-13T14:25:26.983Z,26.08
2019-05-13T14:27:55.787Z,25.82
2019-05-13T14:30:24.974Z,25.83
2019-05-13T14:32:53.785Z,26.31
2019-05-13T14:35:22.698Z,25.62
2019-05-13T14:37:52.031Z,25.81
2019-05-13T14:40:22.536Z,26.20
2019-05-13T14:42:52.648Z,25.66
2019-05-13T14:45:23.710Z,26.35
2019-05-13T14:47:50.037Z,25.92
2019-05-13T14:50:21.232Z,26.78
2019-05-13T14:52:48.372Z,26.48
2019-05-13T14:55:17.275Z,27.62
2019-05-13T14:57:46.293Z,27.37
2019-05-13T15:00:15.086Z,26.37
2019-05-13T15:02:43.899Z,26.71
2019-05-13T15:05:12.751Z,27.55
2019-05-13T15:07:42.270Z,28.87
2019-05-13T15:10:10.430Z,27.68
2019-05-13T15:12:41.454Z,28.52
2019-05-13T15:15:08.639Z,28.56
2019-05-13T15:17:37.451Z,28.96
2019-05-13T15:20:06.431Z,28.53
2019-05-13T15:22:35.231Z,29.91
2019-05-13T15:25:04.902Z,30.18
2019-05-13T15:27:35.026Z,29.58
2019-05-13T15:30:16.705Z,30.15
2019-05-13T15:32:34.228Z,30.53
2019-05-13T15:35:03.916Z,29.82
2019-05-13T15:37:32.780Z,30.33
2019-05-13T15:40:02.321Z,29.80
2019-05-13T15:42:31.912Z,29.90
2019-05-13T15:45:01.786Z,30.78
2019-05-13T15:47:31.067Z,31.75
2019-05-13T15:50:02.203Z,30.93
2019-05-13T15:52:31.526Z,30.99
2019-05-13T15:55:01.257Z,31.30
2019-05-13T15:57:28.359Z,31.26
2019-05-13T15:59:57.780Z,31.64
2019-05-13T16:02:26.693Z,32.29
2019-05-13T16:05:01.322Z,31.93
2019-05-13T16:07:24.342Z,32.32
2019-05-13T16:09:53.140Z,31.61
2019-05-13T16:12:22.542Z,31.89
2019-05-13T16:14:52.661Z,32.51
2019-05-13T16:17:30.727Z,31.36
2019-05-13T16:19:53.528Z,31.09
2019-05-13T16:22:19.423Z,31.64
2019-05-13T16:24:48.438Z,32.01
2019-05-13T16:27:17.254Z,31.88
2019-05-13T16:29:46.070Z,33.32
2019-05-13T16:32:15.450Z,32.54
2019-05-13T16:34:45.948Z,32.40
2019-05-13T16:37:15.475Z,32.92
2019-05-13T16:39:45.244Z,32.11
2019-05-13T16:42:14.060Z,32.64
2019-05-13T16:44:43.268Z,32.60
2019-05-13T16:47:12.400Z,33.37
2019-05-13T16:49:41.151Z,32.18
2019-05-13T16:52:11.661Z,32.81
2019-05-13T16:57:53.420Z,33.34
2019-05-13T17:00:22.286Z,33.29
2019-05-13T17:02:52.000Z,33.39
2019-05-13T17:05:21.679Z,34.07
2019-05-13T17:07:51.574Z,34.24
2019-05-13T17:10:24.973Z,34.23
2019-05-13T17:12:54.048Z,34.56
2019-05-13T17:15:26.444Z,34.24
2019-05-13T17:18:07.963Z,34.28
2019-05-13T17:20:23.712Z,34.52
2019-05-13T17:22:52.499Z,34.77
2019-05-13T17:25:23.843Z,35.04
2019-05-13T17:27:52.931Z,34.80
2019-05-13T17:30:22.070Z,34.79
2019-05-13T17:32:51.597Z,34.62
2019-05-13T17:35:21.784Z,35.55
2019-05-13T17:37:51.203Z,35.49
2019-05-13T17:40:18.956Z,35.10
2019-05-13T17:42:47.832Z,35.25
2019-05-13T17:45:17.653Z,35.17
2019-05-13T17:47:46.488Z,34.98
2019-05-13T17:50:15.963Z,35.11
2019-05-13T17:52:44.786Z,35.51
2019-05-13T17:55:15.392Z,35.66
2019-05-13T17:57:44.547Z,35.74
2019-05-13T18:00:13.349Z,35.57
2019-05-13T18:02:42.735Z,36.62
2019-05-13T18:05:12.068Z,36.81
2019-05-13T18:07:42.007Z,36.95
2019-05-13T18:10:12.073Z,37.25
2019-05-13T18:12:41.640Z,36.97
2019-05-13T18:15:08.190Z,37.40
2019-05-13T18:17:38.731Z,37.63
2019-05-13T18:20:09.263Z,38.12
2019-05-13T18:22:38.842Z,37.71
2019-05-13T18:25:08.338Z,38.10
2019-05-13T18:27:37.881Z,38.29
2019-05-13T18:30:07.069Z,38.28
2019-05-13T18:32:36.125Z,38.02
2019-05-13T18:35:05.625Z,38.00
2019-05-13T18:37:34.416Z,38.58
2019-05-13T18:40:03.296Z,39.07
2019-05-13T18:42:32.662Z,38.64
2019-05-13T18:45:02.231Z,39.00
2019-05-13T18:47:31.629Z,38.92
2019-05-13T18:50:02.165Z,38.98
2019-05-13T18:52:32.352Z,39.57
2019-05-13T18:55:02.203Z,39.67
2019-05-13T18:57:31.996Z,39.63
2019-05-13T19:00:07.757Z,39.62
2019-05-13T19:02:37.415Z,40.05
2019-05-13T19:05:06.406Z,40.24
2019-05-13T19:07:35.657Z,40.11
2019-05-13T19:10:05.642Z,40.63
2019-05-13T19:12:34.763Z,40.92
2019-05-13T19:15:04.312Z,40.38
2019-05-13T19:17:36.349Z,40.64
2019-05-13T19:20:03.830Z,40.74
2019-05-13T19:22:33.685Z,40.39
2019-05-13T19:25:03.128Z,40.70
2019-05-13T19:27:32.170Z,40.87
2019-05-13T19:30:01.441Z,41.42
2019-05-13T19:32:32.391Z,41.20
2019-05-13T19:35:02.536Z,41.53
2019-05-13T19:37:31.746Z,41.71
2019-05-13T19:40:01.661Z,41.87
2019-05-13T19:42:31.475Z,42.58
2019-05-13T19:45:01.913Z,42.49
2019-05-13T19:47:30.047Z,43.00
2019-05-13T19:50:02.201Z,43.43
2019-05-13T19:52:32.032Z,43.66
2019-05-13T19:55:01.790Z,44.06
2019-05-13T19:57:31.772Z,43.98
2019-05-13T20:00:01.404Z,43.95
2019-05-13T20:02:31.592Z,45.05
2019-05-13T20:05:01.068Z,44.44
2019-05-13T20:07:28.167Z,44.68
2019-05-13T20:09:57.499Z,44.96
2019-05-13T20:12:26.420Z,45.18
2019-05-13T20:14:55.298Z,45.87
2019-05-13T20:17:24.242Z,46.04
2019-05-13T20:19:53.624Z,46.36
2019-05-13T20:22:22.927Z,46.44
2019-05-13T20:24:51.757Z,46.85
2019-05-13T20:27:21.694Z,46.77
2019-05-13T20:29:51.292Z,46.69
2019-05-13T20:32:22.068Z,47.37
2019-05-13T20:34:51.331Z,47.22
2019-05-13T20:37:18.007Z,47.38
2019-05-13T20:39:47.075Z,47.54
2019-05-13T20:42:15.955Z,47.82
2019-05-13T20:44:45.585Z,47.81
2019-05-13T20:47:14.454Z,48.28
2019-05-13T20:49:57.914Z,48.52
2019-05-13T20:52:15.493Z,48.44
2019-05-13T20:54:45.696Z,48.38
2019-05-13T20:57:14.753Z,48.56
2019-05-13T20:59:44.229Z,48.88
2019-05-13T21:02:13.131Z,48.64
2019-05-13T21:04:43.558Z,48.42
2019-05-13T21:07:12.621Z,48.95
2019-05-13T21:09:42.431Z,48.80
2019-05-13T21:12:13.329Z,49.76
2019-05-13T21:14:43.024Z,49.28
2019-05-13T21:17:13.800Z,49.45
2019-05-13T21:19:43.190Z,49.05
2019-05-13T21:22:12.272Z,49.66
2019-05-13T21:24:42.280Z,49.59
2019-05-13T21:27:11.963Z,49.58
2019-05-13T21:29:41.435Z,49.63
2019-05-13T21:32:11.920Z,49.51
2019-05-13T21:34:40.567Z,50.15
2019-05-13T21:37:11.375Z,50.52
2019-05-13T21:39:41.281Z,50.22
2019-05-13T21:42:11.296Z,51.18
2019-05-13T21:44:38.715Z,51.22
2019-05-13T21:47:08.275Z,51.38
2019-05-13T21:49:39.354Z,51.53
2019-05-13T21:52:09.059Z,52.35
2019-05-13T21:54:38.525Z,51.77
2019-05-13T21:57:08.032Z,52.17
2019-05-13T21:59:36.820Z,52.73
2019-05-13T22:02:06.486Z,52.47
2019-05-13T22:04:36.051Z,52.60
2019-05-13T22:07:06.224Z,53.23
2019-05-13T22:09:35.048Z,53.07
2019-05-13T22:12:03.855Z,53.25
2019-05-13T22:14:33.376Z,53.90
2019-05-13T22:17:02.897Z,54.42
2019-05-13T22:19:31.836Z,54.91
2019-05-13T22:22:02.331Z,55.09
2019-05-13T22:24:31.221Z,55.44
2019-05-13T22:26:58.965Z,55.92
2019-05-13T22:29:27.867Z,55.53
2019-05-13T22:31:57.674Z,56.18
2019-05-13T22:34:26.560Z,56.93
2019-05-13T22:36:56.472Z,57.15
2019-05-13T22:39:25.282Z,57.32
2019-05-13T22:41:55.014Z,57.97
2019-05-13T22:44:23.931Z,57.54
2019-05-13T22:46:54.193Z,57.46
2019-05-13T22:49:23.662Z,57.70
2019-05-13T22:51:53.363Z,58.16
2019-05-13T22:54:22.973Z,59.51
2019-05-13T22:56:52.284Z,59.84
2019-05-13T22:59:21.605Z,58.82
2019-05-13T23:01:52.427Z,59.88
2019-05-13T23:04:21.430Z,59.67
2019-05-13T23:06:51.993Z,59.08
2019-05-13T23:09:21.568Z,59.65
2019-05-13T23:11:51.121Z,60.90
2019-05-13T23:14:19.158Z,60.43
2019-05-13T23:16:49.258Z,61.35
2019-05-13T23:19:18.972Z,60.82
2019-05-13T23:21:48.282Z,60.81
2019-05-13T23:24:17.087Z,61.60
2019-05-13T23:26:47.205Z,61.56
2019-05-13T23:29:17.195Z,62.63
2019-05-13T23:31:51.883Z,62.28
2019-05-13T23:34:19.525Z,62.70
2019-05-13T23:36:51.386Z,62.62
2019-05-13T23:39:21.561Z,62.49
2019-05-13T23:41:52.199Z,62.72
2019-05-13T23:44:26.996Z,63.03
2019-05-13T23:46:51.608Z,64.02
2019-05-13T23:49:21.084Z,64.50
2019-05-13T23:51:49.318Z,63.69
2019-05-13T23:54:18.135Z,63.56
2019-05-13T23:56:48.264Z,63.59
2019-05-13T23:59:17.106Z,63.95
